sensor_id;sensor_type;location;lat;lon;timestamp;P1;durP1;ratioP1;P2;durP2;ratioP2
11139;SDS011;5624;49.388;11.350;2023-05-10T00:00:04;5.18;;;3.28;;
11139;SDS011;5624;49.388;11.350;2023-05-10T00:02:30;6.03;;;3.42;;
11139;SDS011;5624;49.388;11.350;2023-05-10T00:04:56;4.65;;;3.00;;
11139;SDS011;5624;49.388;11.350;2023-05-10T00:07:22;6.55;;;3.90;;
11139;SDS011;5624;49.388;11.350;2023-05-10T00:09:47;3.92;;;3.00;;
11139;SDS011;5624;49.388;11.350;2023-05-10T00:12:13;4.45;;;3.40;;
11139;SDS011;5624;49.388;11.350;2023-05-10T00:14:39;4.95;;;3.38;;
11139;SDS011;5624;49.388;11.350;2023-05-10T00:17:04;7.18;;;3.80;;
11139;SDS011;5624;49.388;11.350;2023-05-10T00:19:30;3.80;;;3.03;;
11139;SDS011;5624;49.388;11.350;2023-05-10T00:21:55;5.88;;;3.72;;
11139;SDS011;5624;49.388;11.350;2023-05-10T00:24:21;8.57;;;3.78;;
11139;SDS011;5624;49.388;11.350;2023-05-10T00:26:46;7.32;;;3.42;;
11139;SDS011;5624;49.388;11.350;2023-05-10T00:29:12;5.88;;;3.45;;
11139;SDS011;5624;49.388;11.350;2023-05-10T00:31:38;3.65;;;3.17;;
11139;SDS011;5624;49.388;11.350;2023-05-10T00:34:03;5.03;;;3.30;;
11139;SDS011;5624;49.388;11.350;2023-05-10T00:36:29;4.45;;;3.53;;
11139;SDS011;5624;49.388;11.350;2023-05-10T00:38:56;5.78;;;3.08;;
11139;SDS011;5624;49.388;11.350;2023-05-10T00:41:21;6.30;;;3.80;;
11139;SDS011;5624;49.388;11.350;2023-05-10T00:43:47;5.03;;;3.75;;
11139;SDS011;5624;49.388;11.350;2023-05-10T00:46:14;7.10;;;3.97;;
11139;SDS011;5624;49.388;11.350;2023-05-10T00:48:40;7.03;;;3.33;;
11139;SDS011;5624;49.388;11.350;2023-05-10T00:51:05;4.65;;;3.90;;
11139;SDS011;5624;49.388;11.350;2023-05-10T00:53:31;4.77;;;3.30;;
11139;SDS011;5624;49.388;11.350;2023-05-10T00:55:57;6.10;;;3.50;;
11139;SDS011;5624;49.388;11.350;2023-05-10T00:58:24;5.97;;;4.07;;
11139;SDS011;5624;49.388;11.350;2023-05-10T01:00:53;4.72;;;3.47;;
11139;SDS011;5624;49.388;11.350;2023-05-10T01:03:20;6.70;;;3.72;;
11139;SDS011;5624;49.388;11.350;2023-05-10T01:05:46;7.30;;;3.50;;
11139;SDS011;5624;49.388;11.350;2023-05-10T01:08:11;5.45;;;3.75;;
11139;SDS011;5624;49.388;11.350;2023-05-10T01:10:37;5.15;;;3.80;;
11139;SDS011;5624;49.388;11.350;2023-05-10T01:13:03;4.13;;;3.13;;
11139;SDS011;5624;49.388;11.350;2023-05-10T01:15:28;4.63;;;3.58;;
11139;SDS011;5624;49.388;11.350;2023-05-10T01:17:55;5.60;;;3.58;;
11139;SDS011;5624;49.388;11.350;2023-05-10T01:20:21;5.82;;;3.63;;
11139;SDS011;5624;49.388;11.350;2023-05-10T01:23:03;6.60;;;3.78;;
11139;SDS011;5624;49.388;11.350;2023-05-10T01:33:43;6.55;;;5.45;;
11139;SDS011;5624;49.388;11.350;2023-05-10T01:36:16;6.45;;;5.05;;
11139;SDS011;5624;49.388;11.350;2023-05-10T01:38:59;6.43;;;5.30;;
11139;SDS011;5624;49.388;11.350;2023-05-10T01:47:10;6.93;;;5.65;;
11139;SDS011;5624;49.388;11.350;2023-05-10T01:49:47;8.85;;;6.18;;
11139;SDS011;5624;49.388;11.350;2023-05-10T01:52:16;7.00;;;5.78;;
11139;SDS011;5624;49.388;11.350;2023-05-10T01:54:45;7.22;;;6.03;;
11139;SDS011;5624;49.388;11.350;2023-05-10T01:57:16;6.93;;;5.53;;
11139;SDS011;5624;49.388;11.350;2023-05-10T01:59:45;6.53;;;5.03;;
11139;SDS011;5624;49.388;11.350;2023-05-10T02:02:14;7.17;;;5.47;;
11139;SDS011;5624;49.388;11.350;2023-05-10T02:04:41;8.17;;;5.77;;
11139;SDS011;5624;49.388;11.350;2023-05-10T02:07:08;8.05;;;5.85;;
11139;SDS011;5624;49.388;11.350;2023-05-10T02:09:35;8.23;;;6.20;;
11139;SDS011;5624;49.388;11.350;2023-05-10T02:12:02;8.73;;;6.53;;
11139;SDS011;5624;49.388;11.350;2023-05-10T02:14:30;7.03;;;6.07;;
11139;SDS011;5624;49.388;11.350;2023-05-10T02:16:59;9.03;;;6.73;;
11139;SDS011;5624;49.388;11.350;2023-05-10T02:19:25;9.13;;;6.93;;
11139;SDS011;5624;49.388;11.350;2023-05-10T02:21:52;10.30;;;7.23;;
11139;SDS011;5624;49.388;11.350;2023-05-10T02:24:20;8.70;;;7.33;;
11139;SDS011;5624;49.388;11.350;2023-05-10T02:26:48;9.60;;;7.63;;
11139;SDS011;5624;49.388;11.350;2023-05-10T02:29:16;8.95;;;7.15;;
11139;SDS011;5624;49.388;11.350;2023-05-10T02:31:43;9.77;;;7.67;;
11139;SDS011;5624;49.388;11.350;2023-05-10T02:34:09;11.25;;;7.97;;
11139;SDS011;5624;49.388;11.350;2023-05-10T02:36:36;10.07;;;7.40;;
11139;SDS011;5624;49.388;11.350;2023-05-10T02:39:03;10.90;;;7.50;;
11139;SDS011;5624;49.388;11.350;2023-05-10T02:41:34;10.52;;;7.68;;
11139;SDS011;5624;49.388;11.350;2023-05-10T02:44:00;8.73;;;6.70;;
11139;SDS011;5624;49.388;11.350;2023-05-10T02:46:28;9.30;;;6.77;;
11139;SDS011;5624;49.388;11.350;2023-05-10T02:48:54;9.90;;;6.90;;
11139;SDS011;5624;49.388;11.350;2023-05-10T02:51:19;10.13;;;6.17;;
11139;SDS011;5624;49.388;11.350;2023-05-10T02:53:48;9.45;;;7.25;;
11139;SDS011;5624;49.388;11.350;2023-05-10T02:56:20;9.45;;;6.40;;
11139;SDS011;5624;49.388;11.350;2023-05-10T02:58:50;8.77;;;6.90;;
11139;SDS011;5624;49.388;11.350;2023-05-10T03:01:16;10.20;;;7.30;;
11139;SDS011;5624;49.388;11.350;2023-05-10T03:03:42;11.43;;;8.13;;
11139;SDS011;5624;49.388;11.350;2023-05-10T03:06:07;8.53;;;6.97;;
11139;SDS011;5624;49.388;11.350;2023-05-10T03:08:34;9.57;;;7.10;;
11139;SDS011;5624;49.388;11.350;2023-05-10T03:16:29;9.40;;;6.70;;
11139;SDS011;5624;49.388;11.350;2023-05-10T03:19:12;8.07;;;5.80;;
11139;SDS011;5624;49.388;11.350;2023-05-10T03:21:45;8.30;;;5.93;;
11139;SDS011;5624;49.388;11.350;2023-05-10T03:24:15;7.50;;;5.77;;
11139;SDS011;5624;49.388;11.350;2023-05-10T03:26:43;8.27;;;5.83;;
11139;SDS011;5624;49.388;11.350;2023-05-10T03:29:11;7.53;;;5.43;;
11139;SDS011;5624;49.388;11.350;2023-05-10T03:31:39;7.47;;;5.33;;
11139;SDS011;5624;49.388;11.350;2023-05-10T03:34:05;8.13;;;6.50;;
11139;SDS011;5624;49.388;11.350;2023-05-10T03:36:31;6.43;;;4.93;;
11139;SDS011;5624;49.388;11.350;2023-05-10T03:38:57;8.17;;;6.20;;
11139;SDS011;5624;49.388;11.350;2023-05-10T03:41:22;8.90;;;5.50;;
11139;SDS011;5624;49.388;11.350;2023-05-10T03:43:48;9.52;;;6.30;;
11139;SDS011;5624;49.388;11.350;2023-05-10T03:46:14;4.68;;;3.53;;
11139;SDS011;5624;49.388;11.350;2023-05-10T03:48:40;3.07;;;2.23;;
11139;SDS011;5624;49.388;11.350;2023-05-10T03:51:05;4.97;;;3.00;;
11139;SDS011;5624;49.388;11.350;2023-05-10T03:53:31;4.43;;;2.73;;
11139;SDS011;5624;49.388;11.350;2023-05-10T03:55:57;5.50;;;3.33;;
11139;SDS011;5624;49.388;11.350;2023-05-10T03:58:22;6.10;;;3.80;;
11139;SDS011;5624;49.388;11.350;2023-05-10T04:00:48;6.10;;;3.87;;
11139;SDS011;5624;49.388;11.350;2023-05-10T04:03:13;5.27;;;3.23;;
11139;SDS011;5624;49.388;11.350;2023-05-10T04:05:39;5.80;;;3.53;;
11139;SDS011;5624;49.388;11.350;2023-05-10T04:08:05;4.37;;;3.57;;
11139;SDS011;5624;49.388;11.350;2023-05-10T04:10:31;6.00;;;3.67;;
11139;SDS011;5624;49.388;11.350;2023-05-10T04:12:57;5.73;;;3.43;;
11139;SDS011;5624;49.388;11.350;2023-05-10T04:15:23;5.87;;;3.80;;
11139;SDS011;5624;49.388;11.350;2023-05-10T04:17:49;4.10;;;3.50;;
11139;SDS011;5624;49.388;11.350;2023-05-10T04:20:15;5.00;;;3.63;;
11139;SDS011;5624;49.388;11.350;2023-05-10T04:22:41;4.60;;;3.67;;
11139;SDS011;5624;49.388;11.350;2023-05-10T04:25:07;5.83;;;3.80;;
11139;SDS011;5624;49.388;11.350;2023-05-10T04:27:33;3.97;;;3.17;;
11139;SDS011;5624;49.388;11.350;2023-05-10T04:29:58;5.67;;;3.37;;
11139;SDS011;5624;49.388;11.350;2023-05-10T04:32:24;5.10;;;3.20;;
11139;SDS011;5624;49.388;11.350;2023-05-10T04:34:50;3.87;;;2.67;;
11139;SDS011;5624;49.388;11.350;2023-05-10T04:37:17;4.30;;;2.73;;
11139;SDS011;5624;49.388;11.350;2023-05-10T04:39:42;4.47;;;2.77;;
11139;SDS011;5624;49.388;11.350;2023-05-10T04:42:08;3.63;;;2.77;;
11139;SDS011;5624;49.388;11.350;2023-05-10T04:44:34;2.53;;;1.90;;
11139;SDS011;5624;49.388;11.350;2023-05-10T04:47:01;3.13;;;2.13;;
11139;SDS011;5624;49.388;11.350;2023-05-10T04:49:27;2.63;;;2.03;;
11139;SDS011;5624;49.388;11.350;2023-05-10T04:51:53;4.83;;;1.83;;
11139;SDS011;5624;49.388;11.350;2023-05-10T04:54:18;2.53;;;1.83;;
11139;SDS011;5624;49.388;11.350;2023-05-10T04:56:44;1.60;;;1.43;;
11139;SDS011;5624;49.388;11.350;2023-05-10T04:59:10;2.20;;;1.50;;
11139;SDS011;5624;49.388;11.350;2023-05-10T05:01:35;2.70;;;1.67;;
11139;SDS011;5624;49.388;11.350;2023-05-10T05:04:01;2.57;;;1.50;;
11139;SDS011;5624;49.388;11.350;2023-05-10T05:06:26;2.87;;;1.70;;
11139;SDS011;5624;49.388;11.350;2023-05-10T05:08:52;1.20;;;1.00;;
11139;SDS011;5624;49.388;11.350;2023-05-10T05:11:18;2.13;;;1.10;;
11139;SDS011;5624;49.388;11.350;2023-05-10T05:13:43;3.63;;;1.17;;
11139;SDS011;5624;49.388;11.350;2023-05-10T05:16:09;1.63;;;1.30;;
11139;SDS011;5624;49.388;11.350;2023-05-10T05:18:36;3.20;;;1.23;;
11139;SDS011;5624;49.388;11.350;2023-05-10T05:21:02;1.93;;;1.00;;
11139;SDS011;5624;49.388;11.350;2023-05-10T05:23:27;1.23;;;1.13;;
11139;SDS011;5624;49.388;11.350;2023-05-10T05:25:53;1.53;;;1.03;;
11139;SDS011;5624;49.388;11.350;2023-05-10T05:28:22;1.10;;;1.00;;
11139;SDS011;5624;49.388;11.350;2023-05-10T05:30:47;1.63;;;1.10;;
11139;SDS011;5624;49.388;11.350;2023-05-10T05:33:13;0.90;;;0.90;;
11139;SDS011;5624;49.388;11.350;2023-05-10T05:35:40;1.20;;;1.10;;
11139;SDS011;5624;49.388;11.350;2023-05-10T05:38:07;1.37;;;1.00;;
11139;SDS011;5624;49.388;11.350;2023-05-10T05:40:33;1.67;;;0.97;;
11139;SDS011;5624;49.388;11.350;2023-05-10T05:42:59;2.10;;;1.00;;
11139;SDS011;5624;49.388;11.350;2023-05-10T05:45:24;1.30;;;1.03;;
11139;SDS011;5624;49.388;11.350;2023-05-10T05:47:50;0.70;;;0.70;;
11139;SDS011;5624;49.388;11.350;2023-05-10T05:50:15;2.20;;;0.97;;
11139;SDS011;5624;49.388;11.350;2023-05-10T05:52:41;2.20;;;1.20;;
11139;SDS011;5624;49.388;11.350;2023-05-10T05:55:06;0.97;;;0.83;;
11139;SDS011;5624;49.388;11.350;2023-05-10T05:57:32;0.90;;;0.63;;
11139;SDS011;5624;49.388;11.350;2023-05-10T05:59:58;0.80;;;0.80;;
11139;SDS011;5624;49.388;11.350;2023-05-10T06:02:24;1.47;;;0.60;;
11139;SDS011;5624;49.388;11.350;2023-05-10T06:04:50;1.25;;;0.82;;
11139;SDS011;5624;49.388;11.350;2023-05-10T06:07:15;0.80;;;0.80;;
11139;SDS011;5624;49.388;11.350;2023-05-10T06:09:41;0.90;;;0.88;;
11139;SDS011;5624;49.388;11.350;2023-05-10T06:12:07;1.10;;;0.73;;
11139;SDS011;5624;49.388;11.350;2023-05-10T06:14:32;1.00;;;0.90;;
11139;SDS011;5624;49.388;11.350;2023-05-10T06:16:58;0.70;;;0.70;;
11139;SDS011;5624;49.388;11.350;2023-05-10T06:19:24;1.85;;;1.15;;
11139;SDS011;5624;49.388;11.350;2023-05-10T06:21:51;1.45;;;0.90;;
11139;SDS011;5624;49.388;11.350;2023-05-10T06:24:16;3.00;;;1.07;;
11139;SDS011;5624;49.388;11.350;2023-05-10T06:26:42;1.83;;;0.90;;
11139;SDS011;5624;49.388;11.350;2023-05-10T06:29:08;0.80;;;0.80;;
11139;SDS011;5624;49.388;11.350;2023-05-10T06:31:33;0.90;;;0.85;;
11139;SDS011;5624;49.388;11.350;2023-05-10T06:33:59;1.00;;;0.90;;
11139;SDS011;5624;49.388;11.350;2023-05-10T06:36:24;1.38;;;0.80;;
11139;SDS011;5624;49.388;11.350;2023-05-10T06:38:51;2.15;;;1.00;;
11139;SDS011;5624;49.388;11.350;2023-05-10T06:41:17;1.23;;;1.05;;
11139;SDS011;5624;49.388;11.350;2023-05-10T06:43:42;1.33;;;1.15;;
11139;SDS011;5624;49.388;11.350;2023-05-10T06:46:08;2.25;;;0.98;;
11139;SDS011;5624;49.388;11.350;2023-05-10T06:48:34;1.48;;;1.38;;
11139;SDS011;5624;49.388;11.350;2023-05-10T06:50:59;0.90;;;0.90;;
11139;SDS011;5624;49.388;11.350;2023-05-10T06:53:25;0.82;;;0.80;;
11139;SDS011;5624;49.388;11.350;2023-05-10T06:55:51;1.08;;;0.90;;
11139;SDS011;5624;49.388;11.350;2023-05-10T06:58:17;1.77;;;0.85;;
11139;SDS011;5624;49.388;11.350;2023-05-10T07:00:42;3.38;;;1.30;;
11139;SDS011;5624;49.388;11.350;2023-05-10T07:03:09;1.48;;;1.17;;
11139;SDS011;5624;49.388;11.350;2023-05-10T07:05:35;1.02;;;0.90;;
11139;SDS011;5624;49.388;11.350;2023-05-10T07:08:01;2.15;;;0.88;;
11139;SDS011;5624;49.388;11.350;2023-05-10T07:10:27;1.48;;;1.13;;
11139;SDS011;5624;49.388;11.350;2023-05-10T07:12:52;1.55;;;1.20;;
11139;SDS011;5624;49.388;11.350;2023-05-10T07:15:18;1.92;;;1.00;;
11139;SDS011;5624;49.388;11.350;2023-05-10T07:17:44;1.00;;;0.90;;
11139;SDS011;5624;49.388;11.350;2023-05-10T07:20:10;2.28;;;1.08;;
11139;SDS011;5624;49.388;11.350;2023-05-10T07:22:36;2.60;;;1.23;;
11139;SDS011;5624;49.388;11.350;2023-05-10T07:25:02;1.00;;;1.00;;
11139;SDS011;5624;49.388;11.350;2023-05-10T07:27:27;3.08;;;1.40;;
11139;SDS011;5624;49.388;11.350;2023-05-10T07:29:53;2.17;;;1.02;;
11139;SDS011;5624;49.388;11.350;2023-05-10T07:32:19;1.13;;;1.02;;
11139;SDS011;5624;49.388;11.350;2023-05-10T07:34:45;1.10;;;1.00;;
11139;SDS011;5624;49.388;11.350;2023-05-10T07:37:11;1.65;;;1.02;;
11139;SDS011;5624;49.388;11.350;2023-05-10T07:39:36;2.22;;;0.95;;
11139;SDS011;5624;49.388;11.350;2023-05-10T07:42:02;1.23;;;1.13;;
11139;SDS011;5624;49.388;11.350;2023-05-10T07:44:27;1.42;;;0.98;;
11139;SDS011;5624;49.388;11.350;2023-05-10T07:46:53;1.52;;;1.10;;
11139;SDS011;5624;49.388;11.350;2023-05-10T07:49:19;3.13;;;0.93;;
11139;SDS011;5624;49.388;11.350;2023-05-10T07:51:44;1.08;;;0.95;;
11139;SDS011;5624;49.388;11.350;2023-05-10T07:54:10;0.82;;;0.82;;
11139;SDS011;5624;49.388;11.350;2023-05-10T07:56:36;1.02;;;0.80;;
11139;SDS011;5624;49.388;11.350;2023-05-10T07:59:02;1.13;;;0.95;;
11139;SDS011;5624;49.388;11.350;2023-05-10T08:01:30;1.35;;;1.17;;
11139;SDS011;5624;49.388;11.350;2023-05-10T08:03:57;1.38;;;1.20;;
11139;SDS011;5624;49.388;11.350;2023-05-10T08:06:23;2.75;;;1.02;;
11139;SDS011;5624;49.388;11.350;2023-05-10T08:08:48;2.83;;;1.00;;
11139;SDS011;5624;49.388;11.350;2023-05-10T08:11:18;1.55;;;1.08;;
11139;SDS011;5624;49.388;11.350;2023-05-10T08:13:45;1.20;;;0.90;;
11139;SDS011;5624;49.388;11.350;2023-05-10T08:16:12;1.08;;;0.85;;
11139;SDS011;5624;49.388;11.350;2023-05-10T08:18:38;1.40;;;0.70;;
11139;SDS011;5624;49.388;11.350;2023-05-10T08:21:04;0.60;;;0.60;;
11139;SDS011;5624;49.388;11.350;2023-05-10T08:23:30;1.17;;;0.90;;
11139;SDS011;5624;49.388;11.350;2023-05-10T08:25:55;2.13;;;0.90;;
11139;SDS011;5624;49.388;11.350;2023-05-10T08:28:21;1.08;;;0.98;;
11139;SDS011;5624;49.388;11.350;2023-05-10T08:30:47;2.65;;;1.45;;
11139;SDS011;5624;49.388;11.350;2023-05-10T08:33:12;3.92;;;1.98;;
11139;SDS011;5624;49.388;11.350;2023-05-10T08:35:38;1.50;;;1.17;;
11139;SDS011;5624;49.388;11.350;2023-05-10T08:38:03;1.58;;;0.82;;
11139;SDS011;5624;49.388;11.350;2023-05-10T08:40:29;0.73;;;0.73;;
11139;SDS011;5624;49.388;11.350;2023-05-10T08:42:56;1.83;;;0.90;;
11139;SDS011;5624;49.388;11.350;2023-05-10T08:45:27;1.13;;;0.90;;
11139;SDS011;5624;49.388;11.350;2023-05-10T08:47:57;1.70;;;1.00;;
11139;SDS011;5624;49.388;11.350;2023-05-10T08:50:24;2.25;;;1.00;;
11139;SDS011;5624;49.388;11.350;2023-05-10T08:52:50;2.10;;;1.00;;
11139;SDS011;5624;49.388;11.350;2023-05-10T08:55:20;2.45;;;1.40;;
11139;SDS011;5624;49.388;11.350;2023-05-10T08:57:48;4.03;;;1.45;;
11139;SDS011;5624;49.388;11.350;2023-05-10T09:00:14;1.45;;;0.95;;
11139;SDS011;5624;49.388;11.350;2023-05-10T09:02:40;4.97;;;1.30;;
11139;SDS011;5624;49.388;11.350;2023-05-10T09:05:08;3.42;;;1.35;;
11139;SDS011;5624;49.388;11.350;2023-05-10T09:07:34;1.42;;;1.10;;
11139;SDS011;5624;49.388;11.350;2023-05-10T09:10:00;1.75;;;1.13;;
11139;SDS011;5624;49.388;11.350;2023-05-10T09:12:26;2.17;;;1.00;;
11139;SDS011;5624;49.388;11.350;2023-05-10T09:14:52;3.85;;;1.27;;
11139;SDS011;5624;49.388;11.350;2023-05-10T09:17:19;1.90;;;0.88;;
11139;SDS011;5624;49.388;11.350;2023-05-10T09:19:46;3.72;;;1.50;;
11139;SDS011;5624;49.388;11.350;2023-05-10T09:22:12;5.18;;;1.02;;
11139;SDS011;5624;49.388;11.350;2023-05-10T09:24:37;1.40;;;0.93;;
11139;SDS011;5624;49.388;11.350;2023-05-10T09:27:07;1.13;;;1.00;;
11139;SDS011;5624;49.388;11.350;2023-05-10T09:29:42;1.67;;;1.02;;
11139;SDS011;5624;49.388;11.350;2023-05-10T09:32:08;1.23;;;0.90;;
11139;SDS011;5624;49.388;11.350;2023-05-10T09:34:33;3.42;;;1.02;;
11139;SDS011;5624;49.388;11.350;2023-05-10T09:37:04;1.63;;;0.70;;
11139;SDS011;5624;49.388;11.350;2023-05-10T09:39:34;1.63;;;0.98;;
11139;SDS011;5624;49.388;11.350;2023-05-10T09:42:04;1.67;;;1.00;;
11139;SDS011;5624;49.388;11.350;2023-05-10T09:44:34;1.25;;;0.85;;
11139;SDS011;5624;49.388;11.350;2023-05-10T09:47:03;1.40;;;1.00;;
11139;SDS011;5624;49.388;11.350;2023-05-10T09:49:29;1.35;;;1.25;;
11139;SDS011;5624;49.388;11.350;2023-05-10T09:52:02;2.05;;;1.00;;
11139;SDS011;5624;49.388;11.350;2023-05-10T09:54:29;1.88;;;1.52;;
11139;SDS011;5624;49.388;11.350;2023-05-10T09:56:55;4.07;;;1.70;;
11139;SDS011;5624;49.388;11.350;2023-05-10T09:59:21;3.42;;;1.30;;
11139;SDS011;5624;49.388;11.350;2023-05-10T10:01:49;3.25;;;1.60;;
11139;SDS011;5624;49.388;11.350;2023-05-10T10:04:16;2.42;;;1.50;;
11139;SDS011;5624;49.388;11.350;2023-05-10T10:06:42;2.72;;;1.27;;
11139;SDS011;5624;49.388;11.350;2023-05-10T10:09:08;1.95;;;1.48;;
11139;SDS011;5624;49.388;11.350;2023-05-10T10:11:37;2.08;;;1.50;;
11139;SDS011;5624;49.388;11.350;2023-05-10T10:14:04;2.20;;;1.35;;
11139;SDS011;5624;49.388;11.350;2023-05-10T10:16:30;5.03;;;1.70;;
11139;SDS011;5624;49.388;11.350;2023-05-10T10:18:56;3.45;;;1.70;;
11139;SDS011;5624;49.388;11.350;2023-05-10T10:21:23;2.50;;;2.00;;
11139;SDS011;5624;49.388;11.350;2023-05-10T10:23:49;3.40;;;2.15;;
11139;SDS011;5624;49.388;11.350;2023-05-10T10:26:16;5.30;;;2.45;;
11139;SDS011;5624;49.388;11.350;2023-05-10T10:31:23;4.60;;;2.08;;
11139;SDS011;5624;49.388;11.350;2023-05-10T10:34:27;5.10;;;2.53;;
11139;SDS011;5624;49.388;11.350;2023-05-10T10:36:52;2.60;;;1.85;;
11139;SDS011;5624;49.388;11.350;2023-05-10T10:39:20;3.83;;;2.40;;
11139;SDS011;5624;49.388;11.350;2023-05-10T10:41:50;4.65;;;2.50;;
11139;SDS011;5624;49.388;11.350;2023-05-10T10:47:03;5.68;;;2.60;;
11139;SDS011;5624;49.388;11.350;2023-05-10T10:49:33;3.95;;;2.88;;
11139;SDS011;5624;49.388;11.350;2023-05-10T10:54:49;2.85;;;2.40;;
11139;SDS011;5624;49.388;11.350;2023-05-10T10:57:17;3.47;;;2.10;;
11139;SDS011;5624;49.388;11.350;2023-05-10T10:59:44;5.47;;;2.60;;
11139;SDS011;5624;49.388;11.350;2023-05-10T11:02:23;3.03;;;2.10;;
11139;SDS011;5624;49.388;11.350;2023-05-10T11:04:59;2.67;;;1.90;;
11139;SDS011;5624;49.388;11.350;2023-05-10T11:07:25;2.22;;;1.92;;
11139;SDS011;5624;49.388;11.350;2023-05-10T11:09:51;5.50;;;2.22;;
11139;SDS011;5624;49.388;11.350;2023-05-10T11:12:17;3.33;;;2.40;;
11139;SDS011;5624;49.388;11.350;2023-05-10T11:14:42;3.92;;;2.30;;
11139;SDS011;5624;49.388;11.350;2023-05-10T11:17:24;3.80;;;2.50;;
11139;SDS011;5624;49.388;11.350;2023-05-10T11:20:08;2.58;;;1.90;;
11139;SDS011;5624;49.388;11.350;2023-05-10T11:22:51;5.22;;;2.47;;
11139;SDS011;5624;49.388;11.350;2023-05-10T11:25:18;3.58;;;2.28;;
11139;SDS011;5624;49.388;11.350;2023-05-10T11:27:45;3.20;;;2.15;;
11139;SDS011;5624;49.388;11.350;2023-05-10T11:30:13;4.15;;;2.03;;
11139;SDS011;5624;49.388;11.350;2023-05-10T11:32:40;1.67;;;1.45;;
11139;SDS011;5624;49.388;11.350;2023-05-10T11:35:09;2.65;;;1.50;;
11139;SDS011;5624;49.388;11.350;2023-05-10T11:37:35;3.78;;;2.10;;
11139;SDS011;5624;49.388;11.350;2023-05-10T11:40:02;2.95;;;1.77;;
11139;SDS011;5624;49.388;11.350;2023-05-10T11:42:28;4.55;;;1.80;;
11139;SDS011;5624;49.388;11.350;2023-05-10T11:44:55;3.45;;;1.67;;
11139;SDS011;5624;49.388;11.350;2023-05-10T11:47:21;3.42;;;1.85;;
11139;SDS011;5624;49.388;11.350;2023-05-10T11:49:47;6.63;;;1.75;;
11139;SDS011;5624;49.388;11.350;2023-05-10T11:52:13;1.48;;;1.38;;
11139;SDS011;5624;49.388;11.350;2023-05-10T11:54:51;3.78;;;1.70;;
11139;SDS011;5624;49.388;11.350;2023-05-10T11:57:20;2.28;;;1.20;;
11139;SDS011;5624;49.388;11.350;2023-05-10T11:59:54;2.35;;;1.38;;
11139;SDS011;5624;49.388;11.350;2023-05-10T12:02:21;2.13;;;1.48;;
11139;SDS011;5624;49.388;11.350;2023-05-10T12:04:46;2.03;;;1.38;;
11139;SDS011;5624;49.388;11.350;2023-05-10T12:07:12;6.78;;;1.90;;
11139;SDS011;5624;49.388;11.350;2023-05-10T12:09:42;2.30;;;1.40;;
11139;SDS011;5624;49.388;11.350;2023-05-10T12:12:09;4.10;;;1.38;;
11139;SDS011;5624;49.388;11.350;2023-05-10T12:14:40;1.90;;;1.42;;
11139;SDS011;5624;49.388;11.350;2023-05-10T12:17:06;4.63;;;1.35;;
11139;SDS011;5624;49.388;11.350;2023-05-10T12:19:39;2.58;;;1.45;;
11139;SDS011;5624;49.388;11.350;2023-05-10T12:22:05;3.92;;;1.55;;
11139;SDS011;5624;49.388;11.350;2023-05-10T12:24:33;2.88;;;1.30;;
11139;SDS011;5624;49.388;11.350;2023-05-10T12:27:00;3.72;;;1.60;;
11139;SDS011;5624;49.388;11.350;2023-05-10T12:29:30;2.28;;;1.27;;
11139;SDS011;5624;49.388;11.350;2023-05-10T12:31:57;3.47;;;1.65;;
11139;SDS011;5624;49.388;11.350;2023-05-10T12:34:24;2.85;;;1.83;;
11139;SDS011;5624;49.388;11.350;2023-05-10T12:36:57;3.22;;;1.63;;
11139;SDS011;5624;49.388;11.350;2023-05-10T12:39:23;2.33;;;1.77;;
11139;SDS011;5624;49.388;11.350;2023-05-10T12:41:50;2.55;;;1.80;;
11139;SDS011;5624;49.388;11.350;2023-05-10T12:44:16;2.45;;;1.50;;
11139;SDS011;5624;49.388;11.350;2023-05-10T12:46:42;5.50;;;1.65;;
11139;SDS011;5624;49.388;11.350;2023-05-10T12:49:07;1.73;;;1.40;;
11139;SDS011;5624;49.388;11.350;2023-05-10T12:51:34;2.45;;;1.60;;
11139;SDS011;5624;49.388;11.350;2023-05-10T12:53:59;4.40;;;1.70;;
11139;SDS011;5624;49.388;11.350;2023-05-10T12:56:25;2.33;;;1.50;;
11139;SDS011;5624;49.388;11.350;2023-05-10T12:58:51;2.47;;;1.48;;
11139;SDS011;5624;49.388;11.350;2023-05-10T13:01:16;4.22;;;1.60;;
11139;SDS011;5624;49.388;11.350;2023-05-10T13:03:42;1.63;;;1.52;;
11139;SDS011;5624;49.388;11.350;2023-05-10T13:06:08;2.80;;;1.80;;
11139;SDS011;5624;49.388;11.350;2023-05-10T13:08:34;3.53;;;1.50;;
11139;SDS011;5624;49.388;11.350;2023-05-10T13:11:00;2.60;;;1.60;;
11139;SDS011;5624;49.388;11.350;2023-05-10T13:13:26;1.90;;;1.20;;
11139;SDS011;5624;49.388;11.350;2023-05-10T13:15:52;1.33;;;1.20;;
11139;SDS011;5624;49.388;11.350;2023-05-10T13:18:18;2.58;;;1.27;;
11139;SDS011;5624;49.388;11.350;2023-05-10T13:20:43;2.92;;;1.60;;
11139;SDS011;5624;49.388;11.350;2023-05-10T13:23:09;1.90;;;1.20;;
11139;SDS011;5624;49.388;11.350;2023-05-10T13:25:35;2.00;;;1.02;;
11139;SDS011;5624;49.388;11.350;2023-05-10T13:28:01;1.40;;;1.08;;
11139;SDS011;5624;49.388;11.350;2023-05-10T13:30:27;1.20;;;1.00;;
11139;SDS011;5624;49.388;11.350;2023-05-10T13:32:53;2.10;;;0.90;;
11139;SDS011;5624;49.388;11.350;2023-05-10T13:35:19;3.85;;;1.27;;
11139;SDS011;5624;49.388;11.350;2023-05-10T13:37:45;1.75;;;1.00;;
11139;SDS011;5624;49.388;11.350;2023-05-10T13:40:11;3.33;;;0.90;;
11139;SDS011;5624;49.388;11.350;2023-05-10T13:42:37;1.60;;;0.90;;
11139;SDS011;5624;49.388;11.350;2023-05-10T13:45:03;1.10;;;1.00;;
11139;SDS011;5624;49.388;11.350;2023-05-10T13:47:28;1.30;;;1.05;;
11139;SDS011;5624;49.388;11.350;2023-05-10T13:49:54;1.50;;;1.10;;
11139;SDS011;5624;49.388;11.350;2023-05-10T13:52:20;3.28;;;1.17;;
11139;SDS011;5624;49.388;11.350;2023-05-10T13:54:46;2.47;;;1.33;;
11139;SDS011;5624;49.388;11.350;2023-05-10T13:57:11;2.00;;;1.23;;
11139;SDS011;5624;49.388;11.350;2023-05-10T13:59:38;4.78;;;1.33;;
11139;SDS011;5624;49.388;11.350;2023-05-10T14:02:04;1.67;;;1.20;;
11139;SDS011;5624;49.388;11.350;2023-05-10T14:04:30;1.23;;;0.90;;
11139;SDS011;5624;49.388;11.350;2023-05-10T14:06:56;1.20;;;0.95;;
11139;SDS011;5624;49.388;11.350;2023-05-10T14:09:22;1.73;;;1.08;;
11139;SDS011;5624;49.388;11.350;2023-05-10T14:11:47;1.50;;;1.27;;
11139;SDS011;5624;49.388;11.350;2023-05-10T14:14:13;2.88;;;1.30;;
11139;SDS011;5624;49.388;11.350;2023-05-10T14:16:42;2.95;;;1.45;;
11139;SDS011;5624;49.388;11.350;2023-05-10T14:19:08;2.25;;;1.33;;
11139;SDS011;5624;49.388;11.350;2023-05-10T14:21:34;2.13;;;1.20;;
11139;SDS011;5624;49.388;11.350;2023-05-10T14:24:00;1.98;;;1.30;;
11139;SDS011;5624;49.388;11.350;2023-05-10T14:26:26;1.98;;;1.50;;
11139;SDS011;5624;49.388;11.350;2023-05-10T14:28:52;5.30;;;1.52;;
11139;SDS011;5624;49.388;11.350;2023-05-10T14:31:18;1.35;;;0.82;;
11139;SDS011;5624;49.388;11.350;2023-05-10T14:33:45;2.20;;;1.00;;
11139;SDS011;5624;49.388;11.350;2023-05-10T14:36:14;1.48;;;1.20;;
11139;SDS011;5624;49.388;11.350;2023-05-10T14:38:40;1.17;;;1.08;;
11139;SDS011;5624;49.388;11.350;2023-05-10T14:41:06;1.80;;;1.38;;
11139;SDS011;5624;49.388;11.350;2023-05-10T14:43:31;1.55;;;1.20;;
11139;SDS011;5624;49.388;11.350;2023-05-10T14:45:57;2.15;;;1.00;;
11139;SDS011;5624;49.388;11.350;2023-05-10T14:48:23;1.27;;;1.00;;
11139;SDS011;5624;49.388;11.350;2023-05-10T14:50:48;0.90;;;0.75;;
11139;SDS011;5624;49.388;11.350;2023-05-10T14:53:15;1.42;;;1.00;;
11139;SDS011;5624;49.388;11.350;2023-05-10T14:55:40;1.42;;;0.60;;
11139;SDS011;5624;49.388;11.350;2023-05-10T14:58:06;0.88;;;0.80;;
11139;SDS011;5624;49.388;11.350;2023-05-10T15:00:32;1.10;;;0.90;;
11139;SDS011;5624;49.388;11.350;2023-05-10T15:02:58;0.82;;;0.65;;
11139;SDS011;5624;49.388;11.350;2023-05-10T15:05:23;1.10;;;0.93;;
11139;SDS011;5624;49.388;11.350;2023-05-10T15:07:49;3.58;;;0.85;;
11139;SDS011;5624;49.388;11.350;2023-05-10T15:10:15;2.60;;;1.02;;
11139;SDS011;5624;49.388;11.350;2023-05-10T15:12:40;1.02;;;0.98;;